sensor_id;sensor_type;location;lat;lon;timestamp;temperature;humidity
6863;DHT22;3470;48.738;9.616;2023-04-09T12:23:21;23.90;45.90
6863;DHT22;3470;48.738;9.616;2023-04-09T12:25:47;22.70;49.00
6863;DHT22;3470;48.738;9.616;2023-04-09T12:28:14;21.30;49.60
6863;DHT22;3470;48.738;9.616;2023-04-09T12:30:42;20.20;50.40
6863;DHT22;3470;48.738;9.616;2023-04-09T12:33:08;21.20;51.10
6863;DHT22;3470;48.738;9.616;2023-04-09T12:35:34;24.00;49.60
6863;DHT22;3470;48.738;9.616;2023-04-09T12:38:02;24.80;48.70
6863;DHT22;3470;48.738;9.616;2023-04-09T12:40:29;25.20;46.80
6863;DHT22;3470;48.738;9.616;2023-04-09T12:42:54;25.60;46.00
6863;DHT22;3470;48.738;9.616;2023-04-09T12:45:21;26.40;45.10
6863;DHT22;3470;48.738;9.616;2023-04-09T12:47:47;24.20;45.60
6863;DHT22;3470;48.738;9.616;2023-04-09T12:50:13;23.00;48.00
6863;DHT22;3470;48.738;9.616;2023-04-09T12:52:39;21.70;49.40
6863;DHT22;3470;48.738;9.616;2023-04-09T12:55:05;20.60;50.10
6863;DHT22;3470;48.738;9.616;2023-04-09T12:57:32;19.50;52.00
6863;DHT22;3470;48.738;9.616;2023-04-09T12:59:58;18.90;53.40
6863;DHT22;3470;48.738;9.616;2023-04-09T13:02:24;17.90;53.20
6863;DHT22;3470;48.738;9.616;2023-04-09T13:04:50;18.10;54.90
6863;DHT22;3470;48.738;9.616;2023-04-09T13:07:17;18.00;54.80
6863;DHT22;3470;48.738;9.616;2023-04-09T13:09:44;18.90;54.70
6863;DHT22;3470;48.738;9.616;2023-04-09T13:12:10;20.10;52.00
6863;DHT22;3470;48.738;9.616;2023-04-09T13:14:39;20.80;51.70
6863;DHT22;3470;48.738;9.616;2023-04-09T13:17:05;20.90;51.40
6863;DHT22;3470;48.738;9.616;2023-04-09T13:19:31;20.90;50.70
6863;DHT22;3470;48.738;9.616;2023-04-09T13:21:56;20.30;52.40
6863;DHT22;3470;48.738;9.616;2023-04-09T13:24:22;19.40;53.20
6863;DHT22;3470;48.738;9.616;2023-04-09T13:26:48;18.40;54.20
6863;DHT22;3470;48.738;9.616;2023-04-09T13:29:13;18.10;54.70
6863;DHT22;3470;48.738;9.616;2023-04-09T13:31:39;19.40;53.00
6863;DHT22;3470;48.738;9.616;2023-04-09T13:34:04;20.70;51.80
6863;DHT22;3470;48.738;9.616;2023-04-09T13:36:30;20.90;51.00
6863;DHT22;3470;48.738;9.616;2023-04-09T13:38:56;20.10;52.90
6863;DHT22;3470;48.738;9.616;2023-04-09T13:41:29;18.80;54.50
6863;DHT22;3470;48.738;9.616;2023-04-09T13:43:55;18.10;55.90
6863;DHT22;3470;48.738;9.616;2023-04-09T13:46:20;19.00;55.00
6863;DHT22;3470;48.738;9.616;2023-04-09T13:48:46;19.90;53.90
6863;DHT22;3470;48.738;9.616;2023-04-09T13:51:11;20.20;54.70
6863;DHT22;3470;48.738;9.616;2023-04-09T13:53:37;20.90;53.20
6863;DHT22;3470;48.738;9.616;2023-04-09T13:56:03;21.60;51.00
6863;DHT22;3470;48.738;9.616;2023-04-09T13:58:28;21.40;49.40
6863;DHT22;3470;48.738;9.616;2023-04-09T14:00:54;22.20;48.40
6863;DHT22;3470;48.738;9.616;2023-04-09T14:03:19;22.80;47.70
6863;DHT22;3470;48.738;9.616;2023-04-09T14:05:45;22.30;46.80
6863;DHT22;3470;48.738;9.616;2023-04-09T14:08:11;23.80;46.40
6863;DHT22;3470;48.738;9.616;2023-04-09T14:10:36;24.40;45.60
6863;DHT22;3470;48.738;9.616;2023-04-09T14:13:02;24.50;47.50
6863;DHT22;3470;48.738;9.616;2023-04-09T14:15:31;21.40;50.10
6863;DHT22;3470;48.738;9.616;2023-04-09T14:17:56;18.80;53.70
6863;DHT22;3470;48.738;9.616;2023-04-09T14:20:22;17.40;55.60
6863;DHT22;3470;48.738;9.616;2023-04-09T14:22:49;18.50;54.80
6863;DHT22;3470;48.738;9.616;2023-04-09T14:25:15;20.00;54.00
6863;DHT22;3470;48.738;9.616;2023-04-09T14:27:41;21.70;50.20
6863;DHT22;3470;48.738;9.616;2023-04-09T14:30:08;21.80;49.20
6863;DHT22;3470;48.738;9.616;2023-04-09T14:32:34;21.70;50.20
6863;DHT22;3470;48.738;9.616;2023-04-09T14:34:59;21.20;50.00
6863;DHT22;3470;48.738;9.616;2023-04-09T14:37:25;19.80;51.60
6863;DHT22;3470;48.738;9.616;2023-04-09T14:39:50;19.20;53.00
6863;DHT22;3470;48.738;9.616;2023-04-09T14:42:16;18.00;56.10
6863;DHT22;3470;48.738;9.616;2023-04-09T14:44:41;17.50;55.90
6863;DHT22;3470;48.738;9.616;2023-04-09T14:47:07;17.00;56.50
6863;DHT22;3470;48.738;9.616;2023-04-09T14:49:33;17.90;55.70
6863;DHT22;3470;48.738;9.616;2023-04-09T14:51:58;18.80;54.30
6863;DHT22;3470;48.738;9.616;2023-04-09T14:54:24;19.50;53.90
6863;DHT22;3470;48.738;9.616;2023-04-09T14:56:49;20.90;52.80
6863;DHT22;3470;48.738;9.616;2023-04-09T14:59:15;21.70;50.90
6863;DHT22;3470;48.738;9.616;2023-04-09T15:01:41;21.40;49.40
6863;DHT22;3470;48.738;9.616;2023-04-09T15:04:06;20.20;50.50
6863;DHT22;3470;48.738;9.616;2023-04-09T15:06:32;20.10;50.80
6863;DHT22;3470;48.738;9.616;2023-04-09T15:08:58;20.10;49.90
6863;DHT22;3470;48.738;9.616;2023-04-09T15:11:23;20.70;50.10
6863;DHT22;3470;48.738;9.616;2023-04-09T15:13:50;20.40;49.00
6863;DHT22;3470;48.738;9.616;2023-04-09T15:16:27;20.40;49.80
6863;DHT22;3470;48.738;9.616;2023-04-09T15:18:53;20.30;49.80
6863;DHT22;3470;48.738;9.616;2023-04-09T15:21:20;20.50;49.20
6863;DHT22;3470;48.738;9.616;2023-04-09T15:23:46;20.30;49.80
6863;DHT22;3470;48.738;9.616;2023-04-09T15:26:14;20.50;50.20
6863;DHT22;3470;48.738;9.616;2023-04-09T15:28:39;21.10;49.10
6863;DHT22;3470;48.738;9.616;2023-04-09T15:31:05;20.70;50.40
6863;DHT22;3470;48.738;9.616;2023-04-09T15:33:31;20.70;50.80
6863;DHT22;3470;48.738;9.616;2023-04-09T15:35:58;20.00;49.90
6863;DHT22;3470;48.738;9.616;2023-04-09T15:38:23;19.50;51.10
6863;DHT22;3470;48.738;9.616;2023-04-09T15:40:50;19.30;51.30
6863;DHT22;3470;48.738;9.616;2023-04-09T15:43:16;19.00;51.80
6863;DHT22;3470;48.738;9.616;2023-04-09T15:45:43;19.00;51.60
6863;DHT22;3470;48.738;9.616;2023-04-09T15:48:09;19.10;51.80
6863;DHT22;3470;48.738;9.616;2023-04-09T15:50:35;18.50;52.00
6863;DHT22;3470;48.738;9.616;2023-04-09T15:53:01;18.10;54.40
6863;DHT22;3470;48.738;9.616;2023-04-09T15:55:26;17.70;53.90
6863;DHT22;3470;48.738;9.616;2023-04-09T15:57:52;17.90;53.40
6863;DHT22;3470;48.738;9.616;2023-04-09T16:00:19;17.90;53.90
6863;DHT22;3470;48.738;9.616;2023-04-09T16:02:45;18.30;53.10
6863;DHT22;3470;48.738;9.616;2023-04-09T16:05:10;17.70;52.60
6863;DHT22;3470;48.738;9.616;2023-04-09T16:07:37;18.10;53.50
6863;DHT22;3470;48.738;9.616;2023-04-09T16:10:04;18.20;54.00
6863;DHT22;3470;48.738;9.616;2023-04-09T16:12:30;17.50;54.40
6863;DHT22;3470;48.738;9.616;2023-04-09T16:14:55;17.60;54.70
6863;DHT22;3470;48.738;9.616;2023-04-09T16:17:21;17.10;55.50
6863;DHT22;3470;48.738;9.616;2023-04-09T16:19:46;16.90;55.70
6863;DHT22;3470;48.738;9.616;2023-04-09T16:22:12;16.30;56.30
6863;DHT22;3470;48.738;9.616;2023-04-09T16:24:37;16.00;56.80
6863;DHT22;3470;48.738;9.616;2023-04-09T16:27:03;16.20;57.40
6863;DHT22;3470;48.738;9.616;2023-04-09T16:29:29;15.70;56.70
6863;DHT22;3470;48.738;9.616;2023-04-09T16:31:54;15.40;56.20
6863;DHT22;3470;48.738;9.616;2023-04-09T16:34:21;15.00;57.60
6863;DHT22;3470;48.738;9.616;2023-04-09T16:36:47;14.80;57.30
6863;DHT22;3470;48.738;9.616;2023-04-09T16:39:15;14.70;58.20
6863;DHT22;3470;48.738;9.616;2023-04-09T16:41:41;14.70;58.30
6863;DHT22;3470;48.738;9.616;2023-04-09T16:44:07;14.40;58.30
6863;DHT22;3470;48.738;9.616;2023-04-09T16:46:32;14.00;58.80
6863;DHT22;3470;48.738;9.616;2023-04-09T16:48:58;13.50;59.40
6863;DHT22;3470;48.738;9.616;2023-04-09T16:51:23;13.20;61.40
6863;DHT22;3470;48.738;9.616;2023-04-09T16:53:49;13.00;62.90
6863;DHT22;3470;48.738;9.616;2023-04-09T16:56:15;12.80;62.50
6863;DHT22;3470;48.738;9.616;2023-04-09T16:58:41;12.60;62.30
6863;DHT22;3470;48.738;9.616;2023-04-09T17:01:06;12.50;63.40
6863;DHT22;3470;48.738;9.616;2023-04-09T17:03:32;12.40;64.00
6863;DHT22;3470;48.738;9.616;2023-04-09T17:05:57;12.30;65.00
6863;DHT22;3470;48.738;9.616;2023-04-09T17:08:23;12.10;64.00
6863;DHT22;3470;48.738;9.616;2023-04-09T17:10:52;12.10;64.40
6863;DHT22;3470;48.738;9.616;2023-04-09T17:13:30;11.90;64.70
6863;DHT22;3470;48.738;9.616;2023-04-09T17:15:56;11.80;65.00
6863;DHT22;3470;48.738;9.616;2023-04-09T17:18:21;11.80;66.60
6863;DHT22;3470;48.738;9.616;2023-04-09T17:20:47;11.60;68.30
6863;DHT22;3470;48.738;9.616;2023-04-09T17:23:13;11.50;66.50
6863;DHT22;3470;48.738;9.616;2023-04-09T17:25:39;11.50;66.90
6863;DHT22;3470;48.738;9.616;2023-04-09T17:28:05;11.40;66.80
6863;DHT22;3470;48.738;9.616;2023-04-09T17:30:31;11.30;67.90
6863;DHT22;3470;48.738;9.616;2023-04-09T17:32:57;11.20;68.40
6863;DHT22;3470;48.738;9.616;2023-04-09T17:35:23;11.10;69.00
6863;DHT22;3470;48.738;9.616;2023-04-09T17:37:49;11.10;69.50
6863;DHT22;3470;48.738;9.616;2023-04-09T17:40:15;11.00;70.40
6863;DHT22;3470;48.738;9.616;2023-04-09T17:42:43;10.80;70.10
6863;DHT22;3470;48.738;9.616;2023-04-09T17:45:09;10.80;70.90
6863;DHT22;3470;48.738;9.616;2023-04-09T17:47:35;10.70;71.20
6863;DHT22;3470;48.738;9.616;2023-04-09T17:50:01;10.60;71.80
6863;DHT22;3470;48.738;9.616;2023-04-09T17:52:27;10.50;72.20
6863;DHT22;3470;48.738;9.616;2023-04-09T17:54:53;10.40;72.80
6863;DHT22;3470;48.738;9.616;2023-04-09T17:57:19;10.30;73.80
6863;DHT22;3470;48.738;9.616;2023-04-09T17:59:44;10.10;73.40
6863;DHT22;3470;48.738;9.616;2023-04-09T18:02:10;10.10;73.80
6863;DHT22;3470;48.738;9.616;2023-04-09T18:04:35;10.00;74.40
6863;DHT22;3470;48.738;9.616;2023-04-09T18:07:01;9.90;76.30
6863;DHT22;3470;48.738;9.616;2023-04-09T18:09:28;9.80;76.20
6863;DHT22;3470;48.738;9.616;2023-04-09T18:11:53;9.70;76.50
6863;DHT22;3470;48.738;9.616;2023-04-09T18:14:21;9.60;76.90
6863;DHT22;3470;48.738;9.616;2023-04-09T18:16:47;9.50;77.00
6863;DHT22;3470;48.738;9.616;2023-04-09T18:19:13;9.50;77.50
6863;DHT22;3470;48.738;9.616;2023-04-09T18:21:38;9.40;77.70
6863;DHT22;3470;48.738;9.616;2023-04-09T18:24:04;9.30;77.90
6863;DHT22;3470;48.738;9.616;2023-04-09T18:26:30;9.30;78.00
6863;DHT22;3470;48.738;9.616;2023-04-09T18:28:57;9.20;78.60
6863;DHT22;3470;48.738;9.616;2023-04-09T18:31:23;9.20;78.70
6863;DHT22;3470;48.738;9.616;2023-04-09T18:33:48;9.10;78.50
6863;DHT22;3470;48.738;9.616;2023-04-09T18:36:14;9.10;79.10
6863;DHT22;3470;48.738;9.616;2023-04-09T18:38:39;9.10;78.80
6863;DHT22;3470;48.738;9.616;2023-04-09T18:41:05;9.10;78.70
6863;DHT22;3470;48.738;9.616;2023-04-09T18:43:32;9.00;78.90
6863;DHT22;3470;48.738;9.616;2023-04-09T18:45:58;9.00;79.40
6863;DHT22;3470;48.738;9.616;2023-04-09T18:48:23;8.90;79.60
6863;DHT22;3470;48.738;9.616;2023-04-09T18:50:49;8.70;80.20
6863;DHT22;3470;48.738;9.616;2023-04-09T18:53:14;8.70;80.80
6863;DHT22;3470;48.738;9.616;2023-04-09T18:55:40;8.60;81.30
6863;DHT22;3470;48.738;9.616;2023-04-09T18:58:06;8.60;81.50
6863;DHT22;3470;48.738;9.616;2023-04-09T19:00:34;8.50;81.50
6863;DHT22;3470;48.738;9.616;2023-04-09T19:03:00;8.50;81.60
6863;DHT22;3470;48.738;9.616;2023-04-09T19:05:25;8.50;81.80
6863;DHT22;3470;48.738;9.616;2023-04-09T19:08:01;8.40;82.10
6863;DHT22;3470;48.738;9.616;2023-04-09T19:10:27;8.40;81.70
6863;DHT22;3470;48.738;9.616;2023-04-09T19:12:53;8.40;81.80
6863;DHT22;3470;48.738;9.616;2023-04-09T19:15:20;8.30;82.00
6863;DHT22;3470;48.738;9.616;2023-04-09T19:17:46;8.30;82.00
6863;DHT22;3470;48.738;9.616;2023-04-09T19:20:15;8.40;81.90
6863;DHT22;3470;48.738;9.616;2023-04-09T19:22:48;8.30;82.10
6863;DHT22;3470;48.738;9.616;2023-04-09T19:25:15;8.30;81.90
6863;DHT22;3470;48.738;9.616;2023-04-09T19:27:40;8.30;81.90
6863;DHT22;3470;48.738;9.616;2023-04-09T19:30:06;8.30;82.00
6863;DHT22;3470;48.738;9.616;2023-04-09T19:32:32;8.30;82.10
6863;DHT22;3470;48.738;9.616;2023-04-09T19:34:58;8.30;82.10
6863;DHT22;3470;48.738;9.616;2023-04-09T19:37:23;8.30;82.40
6863;DHT22;3470;48.738;9.616;2023-04-09T19:39:52;8.20;82.50
6863;DHT22;3470;48.738;9.616;2023-04-09T19:42:19;8.20;82.80
6863;DHT22;3470;48.738;9.616;2023-04-09T19:44:45;8.10;82.80
6863;DHT22;3470;48.738;9.616;2023-04-09T19:47:11;8.10;83.20
6863;DHT22;3470;48.738;9.616;2023-04-09T19:49:36;8.00;83.70
6863;DHT22;3470;48.738;9.616;2023-04-09T19:52:02;7.90;84.00
6863;DHT22;3470;48.738;9.616;2023-04-09T19:54:34;7.90;84.30
6863;DHT22;3470;48.738;9.616;2023-04-09T19:57:01;7.90;84.30
6863;DHT22;3470;48.738;9.616;2023-04-09T19:59:27;7.80;84.50
6863;DHT22;3470;48.738;9.616;2023-04-09T20:01:53;7.70;84.90
6863;DHT22;3470;48.738;9.616;2023-04-09T20:04:19;7.70;85.50
6863;DHT22;3470;48.738;9.616;2023-04-09T20:06:44;7.60;85.80
6863;DHT22;3470;48.738;9.616;2023-04-09T20:09:12;7.60;85.90
6863;DHT22;3470;48.738;9.616;2023-04-09T20:11:38;7.60;86.20
6863;DHT22;3470;48.738;9.616;2023-04-09T20:14:04;7.60;86.20
6863;DHT22;3470;48.738;9.616;2023-04-09T20:16:30;7.60;86.30
6863;DHT22;3470;48.738;9.616;2023-04-09T20:18:55;7.50;86.40
6863;DHT22;3470;48.738;9.616;2023-04-09T20:21:21;7.40;86.80
6863;DHT22;3470;48.738;9.616;2023-04-09T20:23:47;7.50;87.00
6863;DHT22;3470;48.738;9.616;2023-04-09T20:26:13;7.50;86.90
6863;DHT22;3470;48.738;9.616;2023-04-09T20:28:39;7.40;87.30
6863;DHT22;3470;48.738;9.616;2023-04-09T20:31:08;7.40;87.30
6863;DHT22;3470;48.738;9.616;2023-04-09T20:33:33;7.40;87.60
6863;DHT22;3470;48.738;9.616;2023-04-09T20:35:59;7.30;87.70
6863;DHT22;3470;48.738;9.616;2023-04-09T20:38:25;7.30;88.00
6863;DHT22;3470;48.738;9.616;2023-04-09T20:40:51;7.20;88.10
6863;DHT22;3470;48.738;9.616;2023-04-09T20:43:17;7.20;88.20
6863;DHT22;3470;48.738;9.616;2023-04-09T20:45:43;7.20;88.50
6863;DHT22;3470;48.738;9.616;2023-04-09T20:48:09;7.10;88.60
6863;DHT22;3470;48.738;9.616;2023-04-09T20:50:34;7.10;88.80
6863;DHT22;3470;48.738;9.616;2023-04-09T20:53:00;7.10;89.00
6863;DHT22;3470;48.738;9.616;2023-04-09T20:55:25;7.10;88.90
6863;DHT22;3470;48.738;9.616;2023-04-09T20:57:52;7.10;89.20
6863;DHT22;3470;48.738;9.616;2023-04-09T21:00:19;7.10;89.30
6863;DHT22;3470;48.738;9.616;2023-04-09T21:02:46;7.00;89.50
6863;DHT22;3470;48.738;9.616;2023-04-09T21:05:11;7.00;89.70
6863;DHT22;3470;48.738;9.616;2023-04-09T21:07:37;6.90;90.00
6863;DHT22;3470;48.738;9.616;2023-04-09T21:10:03;6.80;90.20
6863;DHT22;3470;48.738;9.616;2023-04-09T21:12:30;6.80;90.30
6863;DHT22;3470;48.738;9.616;2023-04-09T21:14:57;6.70;90.50
6863;DHT22;3470;48.738;9.616;2023-04-09T21:17:23;6.80;90.50
6863;DHT22;3470;48.738;9.616;2023-04-09T21:19:48;6.80;90.60
6863;DHT22;3470;48.738;9.616;2023-04-09T21:22:15;6.80;90.50
6863;DHT22;3470;48.738;9.616;2023-04-09T21:24:41;6.80;90.80
6863;DHT22;3470;48.738;9.616;2023-04-09T21:27:06;6.80;90.50
6863;DHT22;3470;48.738;9.616;2023-04-09T21:29:32;6.70;90.60
6863;DHT22;3470;48.738;9.616;2023-04-09T21:31:59;6.60;90.80
6863;DHT22;3470;48.738;9.616;2023-04-09T21:34:25;6.70;90.90
6863;DHT22;3470;48.738;9.616;2023-04-09T21:36:50;6.70;90.90
6863;DHT22;3470;48.738;9.616;2023-04-09T21:39:16;6.70;91.00
6863;DHT22;3470;48.738;9.616;2023-04-09T21:41:42;6.70;91.10
6863;DHT22;3470;48.738;9.616;2023-04-09T21:44:07;6.60;91.10
6863;DHT22;3470;48.738;9.616;2023-04-09T21:46:34;6.60;91.20
6863;DHT22;3470;48.738;9.616;2023-04-09T21:49:04;6.60;91.20
6863;DHT22;3470;48.738;9.616;2023-04-09T21:51:30;6.60;91.30
6863;DHT22;3470;48.738;9.616;2023-04-09T21:54:09;6.50;91.40
6863;DHT22;3470;48.738;9.616;2023-04-09T21:56:35;6.30;91.70
6863;DHT22;3470;48.738;9.616;2023-04-09T21:59:02;6.10;92.00
6863;DHT22;3470;48.738;9.616;2023-04-09T22:01:28;6.10;92.60
6863;DHT22;3470;48.738;9.616;2023-04-09T22:03:59;6.00;92.30
6863;DHT22;3470;48.738;9.616;2023-04-09T22:06:26;6.10;92.40
6863;DHT22;3470;48.738;9.616;2023-04-09T22:08:53;6.00;92.50
6863;DHT22;3470;48.738;9.616;2023-04-09T22:11:18;5.90;92.60
6863;DHT22;3470;48.738;9.616;2023-04-09T22:13:44;6.00;92.70
6863;DHT22;3470;48.738;9.616;2023-04-09T22:16:10;6.00;92.70
6863;DHT22;3470;48.738;9.616;2023-04-09T22:18:36;6.00;92.80
6863;DHT22;3470;48.738;9.616;2023-04-09T22:21:02;6.00;93.00
6863;DHT22;3470;48.738;9.616;2023-04-09T22:23:27;5.90;93.20
6863;DHT22;3470;48.738;9.616;2023-04-09T22:26:02;5.80;93.40
6863;DHT22;3470;48.738;9.616;2023-04-09T22:28:28;5.70;93.60
6863;DHT22;3470;48.738;9.616;2023-04-09T22:30:57;5.70;93.60
6863;DHT22;3470;48.738;9.616;2023-04-09T22:33:26;5.80;93.50
6863;DHT22;3470;48.738;9.616;2023-04-09T22:35:52;5.90;93.40
6863;DHT22;3470;48.738;9.616;2023-04-09T22:38:18;5.90;93.50
6863;DHT22;3470;48.738;9.616;2023-04-09T22:40:46;5.80;93.50
6863;DHT22;3470;48.738;9.616;2023-04-09T22:43:11;5.70;94.20
6863;DHT22;3470;48.738;9.616;2023-04-09T22:45:39;5.50;94.10
6863;DHT22;3470;48.738;9.616;2023-04-09T22:48:05;5.50;94.40
6863;DHT22;3470;48.738;9.616;2023-04-09T22:50:34;5.50;94.40
6863;DHT22;3470;48.738;9.616;2023-04-09T22:53:00;5.40;94.40
6863;DHT22;3470;48.738;9.616;2023-04-09T22:55:25;5.50;94.40
6863;DHT22;3470;48.738;9.616;2023-04-09T22:57:52;5.50;94.30
6863;DHT22;3470;48.738;9.616;2023-04-09T23:00:18;5.50;94.30
6863;DHT22;3470;48.738;9.616;2023-04-09T23:02:43;5.50;94.40
6863;DHT22;3470;48.738;9.616;2023-04-09T23:05:11;5.50;94.50
6863;DHT22;3470;48.738;9.616;2023-04-09T23:07:37;5.50;94.50
6863;DHT22;3470;48.738;9.616;2023-04-09T23:10:03;5.40;94.60
6863;DHT22;3470;48.738;9.616;2023-04-09T23:12:28;5.40;94.70
6863;DHT22;3470;48.738;9.616;2023-04-09T23:14:54;5.40;95.20
6863;DHT22;3470;48.738;9.616;2023-04-09T23:17:20;5.40;94.80
6863;DHT22;3470;48.738;9.616;2023-04-09T23:19:47;5.50;94.70
6863;DHT22;3470;48.738;9.616;2023-04-09T23:22:12;5.60;94.50
6863;DHT22;3470;48.738;9.616;2023-04-09T23:24:38;5.50;94.50
6863;DHT22;3470;48.738;9.616;2023-04-09T23:27:03;5.50;94.50
6863;DHT22;3470;48.738;9.616;2023-04-09T23:29:29;5.60;94.40
6863;DHT22;3470;48.738;9.616;2023-04-09T23:31:55;5.60;94.30
